VGEG/CGP METAR and TAF weather

Enter ICAO airport designator
Station Type Date Time Source
VGEG METAR 2020/06/03 17:00 UTC NOAA

VGEG 031700Z 15003KT 5000 FEW018 SCT120 26/25 Q1008 NOSIG


Station Type Date Time Source
VGEG Decoded METAR 2020/06/03 17:00 UTC NOAA

Chittagong Patenga , Bangladesh (VGEG) 22-16N 091-49E 6M
Jun 03, 2020 - 01:00 PM EDT / 2020.06.03 1700 UTC
Wind: from the SSE (150 degrees) at 3 MPH (3 KT):0
Visibility: 3 mile(s):0
Sky conditions: partly cloudy
Temperature: 78 F (26 C)
Dew Point: 77 F (25 C)
Relative Humidity: 94%
Pressure (altimeter): 29.77 in. Hg (1008 hPa)
ob: VGEG 031700Z 15003KT 5000 FEW018 SCT120 26/25 Q1008 NOSIG
cycle: 17

Station Type Date Time Source
VGEG TAF 2020/06/03 18:48 UTC NOAA

TAF TAF VGEG 031700Z 0318/0424 17005KT 5000 SCT016 BKN100
TEMPO 0400/0403 17015KT 2000 RA/TSRA BKN008 FEW025CB OVC090
BECMG 0404/0406 16008KT 4000 SCT015 BKN100
BECMG 0414/0416 20005KT 5000 SCT016 BKN100

Example: see airport list